sensor_id;sensor_type;location;lat;lon;timestamp;P1;durP1;ratioP1;P2;durP2;ratioP2
20232;SDS011;37438;55.674;13.074;2022-09-09T00:03:06;4.13;;;1.10;;
20232;SDS011;37438;55.674;13.074;2022-09-09T00:06:28;3.55;;;1.38;;
20232;SDS011;37438;55.674;13.074;2022-09-09T00:09:39;6.95;;;1.42;;
20232;SDS011;37438;55.674;13.074;2022-09-09T00:12:52;3.35;;;1.10;;
20232;SDS011;37438;55.674;13.074;2022-09-09T00:19:24;5.43;;;1.60;;
20232;SDS011;37438;55.674;13.074;2022-09-09T00:22:57;5.97;;;2.35;;
20232;SDS011;37438;55.674;13.074;2022-09-09T00:29:43;7.65;;;1.90;;
20232;SDS011;37438;55.674;13.074;2022-09-09T00:33:00;5.43;;;1.52;;
20232;SDS011;37438;55.674;13.074;2022-09-09T00:36:18;5.00;;;1.65;;
20232;SDS011;37438;55.674;13.074;2022-09-09T00:42:40;7.05;;;2.08;;
20232;SDS011;37438;55.674;13.074;2022-09-09T00:49:21;9.88;;;2.50;;
20232;SDS011;37438;55.674;13.074;2022-09-09T00:55:55;6.22;;;1.48;;
20232;SDS011;37438;55.674;13.074;2022-09-09T01:02:29;5.50;;;1.85;;
20232;SDS011;37438;55.674;13.074;2022-09-09T01:12:16;8.90;;;1.60;;
20232;SDS011;37438;55.674;13.074;2022-09-09T01:15:29;7.00;;;2.45;;
20232;SDS011;37438;55.674;13.074;2022-09-09T01:18:37;5.85;;;2.35;;
20232;SDS011;37438;55.674;13.074;2022-09-09T01:21:49;6.25;;;1.55;;
20232;SDS011;37438;55.674;13.074;2022-09-09T01:25:22;5.25;;;1.58;;
20232;SDS011;37438;55.674;13.074;2022-09-09T01:28:58;4.80;;;1.80;;
20232;SDS011;37438;55.674;13.074;2022-09-09T01:35:52;3.65;;;1.40;;
20232;SDS011;37438;55.674;13.074;2022-09-09T01:39:13;5.47;;;1.98;;
20232;SDS011;37438;55.674;13.074;2022-09-09T01:42:20;7.75;;;1.48;;
20232;SDS011;37438;55.674;13.074;2022-09-09T01:45:24;8.07;;;1.80;;
20232;SDS011;37438;55.674;13.074;2022-09-09T01:48:29;7.80;;;2.03;;
20232;SDS011;37438;55.674;13.074;2022-09-09T01:51:39;3.72;;;1.90;;
20232;SDS011;37438;55.674;13.074;2022-09-09T01:54:48;2.95;;;1.27;;
20232;SDS011;37438;55.674;13.074;2022-09-09T02:04:49;5.18;;;1.80;;
20232;SDS011;37438;55.674;13.074;2022-09-09T02:08:22;3.28;;;1.58;;
20232;SDS011;37438;55.674;13.074;2022-09-09T02:11:37;6.07;;;1.65;;
20232;SDS011;37438;55.674;13.074;2022-09-09T02:14:59;2.33;;;1.50;;
20232;SDS011;37438;55.674;13.074;2022-09-09T02:18:24;4.22;;;1.95;;
20232;SDS011;37438;55.674;13.074;2022-09-09T02:21:32;4.18;;;1.45;;
20232;SDS011;37438;55.674;13.074;2022-09-09T02:24:39;5.13;;;1.75;;
20232;SDS011;37438;55.674;13.074;2022-09-09T02:27:50;5.78;;;1.80;;
20232;SDS011;37438;55.674;13.074;2022-09-09T02:30:58;2.95;;;1.60;;
20232;SDS011;37438;55.674;13.074;2022-09-09T02:34:10;3.78;;;1.60;;
20232;SDS011;37438;55.674;13.074;2022-09-09T02:37:20;7.47;;;1.70;;
20232;SDS011;37438;55.674;13.074;2022-09-09T02:40:30;5.80;;;2.15;;
20232;SDS011;37438;55.674;13.074;2022-09-09T02:43:39;4.22;;;1.67;;
20232;SDS011;37438;55.674;13.074;2022-09-09T02:47:07;8.82;;;2.17;;
20232;SDS011;37438;55.674;13.074;2022-09-09T02:50:33;8.38;;;2.40;;
20232;SDS011;37438;55.674;13.074;2022-09-09T02:53:48;6.10;;;1.58;;
20232;SDS011;37438;55.674;13.074;2022-09-09T02:57:17;6.25;;;1.73;;
20232;SDS011;37438;55.674;13.074;2022-09-09T03:00:26;4.65;;;1.55;;
20232;SDS011;37438;55.674;13.074;2022-09-09T03:03:36;8.05;;;1.80;;
20232;SDS011;37438;55.674;13.074;2022-09-09T03:06:46;6.00;;;2.05;;
20232;SDS011;37438;55.674;13.074;2022-09-09T03:09:55;5.72;;;1.67;;
20232;SDS011;37438;55.674;13.074;2022-09-09T03:13:02;8.45;;;1.70;;
20232;SDS011;37438;55.674;13.074;2022-09-09T03:16:12;6.53;;;1.98;;
20232;SDS011;37438;55.674;13.074;2022-09-09T03:19:23;7.30;;;2.25;;
20232;SDS011;37438;55.674;13.074;2022-09-09T03:22:28;7.15;;;2.05;;
20232;SDS011;37438;55.674;13.074;2022-09-09T03:25:34;9.90;;;2.42;;
20232;SDS011;37438;55.674;13.074;2022-09-09T03:31:44;8.43;;;1.88;;
20232;SDS011;37438;55.674;13.074;2022-09-09T03:34:50;11.23;;;2.45;;
20232;SDS011;37438;55.674;13.074;2022-09-09T03:37:55;7.95;;;2.63;;
20232;SDS011;37438;55.674;13.074;2022-09-09T03:41:00;3.90;;;1.90;;
20232;SDS011;37438;55.674;13.074;2022-09-09T03:44:06;8.38;;;2.60;;
20232;SDS011;37438;55.674;13.074;2022-09-09T03:47:16;11.23;;;2.65;;
20232;SDS011;37438;55.674;13.074;2022-09-09T03:50:27;7.18;;;2.78;;
20232;SDS011;37438;55.674;13.074;2022-09-09T03:53:32;9.38;;;2.58;;
20232;SDS011;37438;55.674;13.074;2022-09-09T03:56:38;5.97;;;2.13;;
20232;SDS011;37438;55.674;13.074;2022-09-09T03:59:46;10.23;;;2.88;;
20232;SDS011;37438;55.674;13.074;2022-09-09T04:02:52;5.20;;;2.17;;
20232;SDS011;37438;55.674;13.074;2022-09-09T04:05:58;16.20;;;2.90;;
20232;SDS011;37438;55.674;13.074;2022-09-09T04:09:05;7.40;;;2.40;;
20232;SDS011;37438;55.674;13.074;2022-09-09T04:12:11;13.57;;;3.15;;
20232;SDS011;37438;55.674;13.074;2022-09-09T04:15:17;9.10;;;2.90;;
20232;SDS011;37438;55.674;13.074;2022-09-09T04:18:22;8.73;;;3.15;;
20232;SDS011;37438;55.674;13.074;2022-09-09T04:21:27;12.65;;;3.20;;
20232;SDS011;37438;55.674;13.074;2022-09-09T04:24:32;9.88;;;2.22;;
20232;SDS011;37438;55.674;13.074;2022-09-09T04:27:37;12.10;;;3.60;;
20232;SDS011;37438;55.674;13.074;2022-09-09T04:30:42;13.88;;;4.05;;
20232;SDS011;37438;55.674;13.074;2022-09-09T04:33:52;9.68;;;3.78;;
20232;SDS011;37438;55.674;13.074;2022-09-09T04:36:57;15.38;;;3.97;;
20232;SDS011;37438;55.674;13.074;2022-09-09T04:43:09;21.52;;;3.45;;
20232;SDS011;37438;55.674;13.074;2022-09-09T04:46:19;10.63;;;3.35;;
20232;SDS011;37438;55.674;13.074;2022-09-09T04:49:27;12.32;;;4.00;;
20232;SDS011;37438;55.674;13.074;2022-09-09T04:52:33;9.25;;;3.47;;
20232;SDS011;37438;55.674;13.074;2022-09-09T04:55:39;16.08;;;4.28;;
20232;SDS011;37438;55.674;13.074;2022-09-09T04:58:44;14.30;;;3.33;;
20232;SDS011;37438;55.674;13.074;2022-09-09T05:01:50;7.90;;;3.20;;
20232;SDS011;37438;55.674;13.074;2022-09-09T05:08:06;9.73;;;3.45;;
20232;SDS011;37438;55.674;13.074;2022-09-09T05:11:14;8.73;;;2.83;;
20232;SDS011;37438;55.674;13.074;2022-09-09T05:14:23;10.85;;;4.00;;
20232;SDS011;37438;55.674;13.074;2022-09-09T05:17:28;11.88;;;3.88;;
20232;SDS011;37438;55.674;13.074;2022-09-09T05:20:32;11.38;;;3.03;;
20232;SDS011;37438;55.674;13.074;2022-09-09T05:23:38;7.93;;;2.40;;
20232;SDS011;37438;55.674;13.074;2022-09-09T05:26:43;10.48;;;3.42;;
20232;SDS011;37438;55.674;13.074;2022-09-09T05:29:48;11.23;;;3.55;;
20232;SDS011;37438;55.674;13.074;2022-09-09T05:32:52;10.63;;;3.10;;
20232;SDS011;37438;55.674;13.074;2022-09-09T05:36:01;9.43;;;3.17;;
20232;SDS011;37438;55.674;13.074;2022-09-09T05:39:08;7.72;;;2.75;;
20232;SDS011;37438;55.674;13.074;2022-09-09T05:42:12;8.80;;;3.40;;
20232;SDS011;37438;55.674;13.074;2022-09-09T05:45:17;5.80;;;2.50;;
20232;SDS011;37438;55.674;13.074;2022-09-09T05:48:21;9.52;;;3.55;;
20232;SDS011;37438;55.674;13.074;2022-09-09T05:51:26;6.85;;;2.75;;
20232;SDS011;37438;55.674;13.074;2022-09-09T05:54:35;10.27;;;2.60;;
20232;SDS011;37438;55.674;13.074;2022-09-09T05:57:41;9.55;;;2.83;;
20232;SDS011;37438;55.674;13.074;2022-09-09T06:00:46;10.82;;;3.50;;
20232;SDS011;37438;55.674;13.074;2022-09-09T06:03:51;6.00;;;3.03;;
20232;SDS011;37438;55.674;13.074;2022-09-09T06:06:58;13.75;;;3.03;;
20232;SDS011;37438;55.674;13.074;2022-09-09T06:10:04;13.15;;;3.72;;
20232;SDS011;37438;55.674;13.074;2022-09-09T06:13:09;6.50;;;3.05;;
20232;SDS011;37438;55.674;13.074;2022-09-09T06:16:16;7.18;;;2.70;;
20232;SDS011;37438;55.674;13.074;2022-09-09T06:19:21;10.45;;;3.08;;
20232;SDS011;37438;55.674;13.074;2022-09-09T06:22:28;6.25;;;2.47;;
20232;SDS011;37438;55.674;13.074;2022-09-09T06:25:32;9.18;;;3.13;;
20232;SDS011;37438;55.674;13.074;2022-09-09T06:28:38;5.00;;;2.50;;
20232;SDS011;37438;55.674;13.074;2022-09-09T06:31:43;7.63;;;2.75;;
20232;SDS011;37438;55.674;13.074;2022-09-09T06:34:59;8.93;;;2.88;;
20232;SDS011;37438;55.674;13.074;2022-09-09T06:38:04;7.78;;;2.17;;
20232;SDS011;37438;55.674;13.074;2022-09-09T06:41:10;9.80;;;2.47;;
20232;SDS011;37438;55.674;13.074;2022-09-09T06:44:16;10.00;;;2.65;;
20232;SDS011;37438;55.674;13.074;2022-09-09T06:47:21;8.50;;;3.22;;
20232;SDS011;37438;55.674;13.074;2022-09-09T06:50:26;9.27;;;3.17;;
20232;SDS011;37438;55.674;13.074;2022-09-09T06:53:30;12.00;;;2.92;;
20232;SDS011;37438;55.674;13.074;2022-09-09T06:56:38;8.57;;;2.67;;
20232;SDS011;37438;55.674;13.074;2022-09-09T06:59:57;4.57;;;2.22;;
20232;SDS011;37438;55.674;13.074;2022-09-09T07:03:02;8.52;;;2.65;;
20232;SDS011;37438;55.674;13.074;2022-09-09T07:06:06;9.07;;;3.10;;
20232;SDS011;37438;55.674;13.074;2022-09-09T07:09:13;8.40;;;2.35;;
20232;SDS011;37438;55.674;13.074;2022-09-09T07:12:22;8.20;;;2.75;;
20232;SDS011;37438;55.674;13.074;2022-09-09T07:15:32;9.73;;;3.53;;
20232;SDS011;37438;55.674;13.074;2022-09-09T07:18:38;2.60;;;1.80;;
20232;SDS011;37438;55.674;13.074;2022-09-09T07:21:43;4.97;;;2.25;;
20232;SDS011;37438;55.674;13.074;2022-09-09T07:24:51;5.18;;;1.73;;
20232;SDS011;37438;55.674;13.074;2022-09-09T07:27:55;4.95;;;2.40;;
20232;SDS011;37438;55.674;13.074;2022-09-09T07:31:00;3.22;;;1.90;;
20232;SDS011;37438;55.674;13.074;2022-09-09T07:34:09;4.78;;;1.73;;
20232;SDS011;37438;55.674;13.074;2022-09-09T07:37:14;3.72;;;1.63;;
20232;SDS011;37438;55.674;13.074;2022-09-09T07:40:20;3.75;;;1.60;;
20232;SDS011;37438;55.674;13.074;2022-09-09T07:43:26;2.13;;;1.33;;
20232;SDS011;37438;55.674;13.074;2022-09-09T07:46:31;2.47;;;1.55;;
20232;SDS011;37438;55.674;13.074;2022-09-09T07:49:36;3.63;;;1.98;;
20232;SDS011;37438;55.674;13.074;2022-09-09T07:52:43;4.00;;;1.77;;
20232;SDS011;37438;55.674;13.074;2022-09-09T07:55:47;2.10;;;1.20;;
20232;SDS011;37438;55.674;13.074;2022-09-09T07:58:53;2.35;;;1.20;;
20232;SDS011;37438;55.674;13.074;2022-09-09T08:01:59;1.80;;;0.88;;
20232;SDS011;37438;55.674;13.074;2022-09-09T08:05:07;4.55;;;1.40;;
20232;SDS011;37438;55.674;13.074;2022-09-09T08:08:13;3.40;;;1.73;;
20232;SDS011;37438;55.674;13.074;2022-09-09T08:11:17;2.92;;;1.52;;
20232;SDS011;37438;55.674;13.074;2022-09-09T08:14:22;1.85;;;1.02;;
20232;SDS011;37438;55.674;13.074;2022-09-09T08:17:27;2.65;;;1.20;;
20232;SDS011;37438;55.674;13.074;2022-09-09T08:20:32;0.93;;;0.80;;
20232;SDS011;37438;55.674;13.074;2022-09-09T08:23:42;1.00;;;0.60;;
20232;SDS011;37438;55.674;13.074;2022-09-09T08:26:49;2.92;;;1.00;;
20232;SDS011;37438;55.674;13.074;2022-09-09T08:29:57;1.05;;;0.93;;
20232;SDS011;37438;55.674;13.074;2022-09-09T08:33:04;0.98;;;0.50;;
20232;SDS011;37438;55.674;13.074;2022-09-09T08:36:10;0.77;;;0.68;;
20232;SDS011;37438;55.674;13.074;2022-09-09T08:39:20;1.35;;;0.70;;
20232;SDS011;37438;55.674;13.074;2022-09-09T08:46:00;0.65;;;0.50;;
20232;SDS011;37438;55.674;13.074;2022-09-09T08:49:38;1.88;;;1.00;;
20232;SDS011;37438;55.674;13.074;2022-09-09T08:56:18;3.60;;;0.80;;
20232;SDS011;37438;55.674;13.074;2022-09-09T08:59:32;1.65;;;0.98;;
20232;SDS011;37438;55.674;13.074;2022-09-09T09:02:48;1.75;;;1.13;;
20232;SDS011;37438;55.674;13.074;2022-09-09T09:06:19;0.82;;;0.82;;
20232;SDS011;37438;55.674;13.074;2022-09-09T09:13:48;1.27;;;1.00;;
20232;SDS011;37438;55.674;13.074;2022-09-09T09:20:18;1.33;;;0.80;;
20232;SDS011;37438;55.674;13.074;2022-09-09T09:23:37;1.38;;;0.75;;
20232;SDS011;37438;55.674;13.074;2022-09-09T09:26:47;1.17;;;1.00;;
20232;SDS011;37438;55.674;13.074;2022-09-09T09:29:53;1.40;;;1.10;;
20232;SDS011;37438;55.674;13.074;2022-09-09T09:33:26;1.50;;;1.13;;
20232;SDS011;37438;55.674;13.074;2022-09-09T09:36:54;2.33;;;1.52;;
20232;SDS011;37438;55.674;13.074;2022-09-09T09:40:08;2.65;;;1.13;;
20232;SDS011;37438;55.674;13.074;2022-09-09T09:43:28;1.02;;;0.90;;
20232;SDS011;37438;55.674;13.074;2022-09-09T09:46:35;9.10;;;1.40;;
20232;SDS011;37438;55.674;13.074;2022-09-09T09:49:56;3.42;;;1.33;;
20232;SDS011;37438;55.674;13.074;2022-09-09T09:53:05;1.48;;;1.38;;
20232;SDS011;37438;55.674;13.074;2022-09-09T09:56:27;1.75;;;1.50;;
20232;SDS011;37438;55.674;13.074;2022-09-09T09:59:38;2.83;;;1.35;;
20232;SDS011;37438;55.674;13.074;2022-09-09T10:03:12;3.25;;;1.08;;
20232;SDS011;37438;55.674;13.074;2022-09-09T10:06:50;3.50;;;1.58;;
20232;SDS011;37438;55.674;13.074;2022-09-09T10:09:55;0.95;;;0.95;;
20232;SDS011;37438;55.674;13.074;2022-09-09T10:13:03;0.85;;;0.85;;
20232;SDS011;37438;55.674;13.074;2022-09-09T10:19:42;0.82;;;0.82;;
20232;SDS011;37438;55.674;13.074;2022-09-09T10:30:16;0.10;;;0.10;;
20232;SDS011;37438;55.674;13.074;2022-09-09T10:33:33;0.85;;;0.20;;
20232;SDS011;37438;55.674;13.074;2022-09-09T10:36:49;0.30;;;0.30;;
20232;SDS011;37438;55.674;13.074;2022-09-09T11:00:21;0.98;;;0.47;;
20232;SDS011;37438;55.674;13.074;2022-09-09T11:03:42;0.45;;;0.38;;
20232;SDS011;37438;55.674;13.074;2022-09-09T11:06:52;0.50;;;0.50;;
20232;SDS011;37438;55.674;13.074;2022-09-09T11:10:02;1.13;;;0.80;;
20232;SDS011;37438;55.674;13.074;2022-09-09T11:13:15;1.45;;;1.00;;
20232;SDS011;37438;55.674;13.074;2022-09-09T11:16:44;1.50;;;1.27;;
20232;SDS011;37438;55.674;13.074;2022-09-09T11:19:54;2.90;;;1.95;;
20232;SDS011;37438;55.674;13.074;2022-09-09T11:23:00;1.48;;;1.38;;
20232;SDS011;37438;55.674;13.074;2022-09-09T11:26:05;2.00;;;1.80;;
20232;SDS011;37438;55.674;13.074;2022-09-09T11:29:20;1.67;;;1.60;;
20232;SDS011;37438;55.674;13.074;2022-09-09T11:43:19;4.63;;;2.47;;
20232;SDS011;37438;55.674;13.074;2022-09-09T11:46:32;3.60;;;3.22;;
20232;SDS011;37438;55.674;13.074;2022-09-09T11:49:41;4.18;;;3.63;;
20232;SDS011;37438;55.674;13.074;2022-09-09T11:52:49;4.85;;;3.42;;
20232;SDS011;37438;55.674;13.074;2022-09-09T11:56:02;4.55;;;3.53;;
20232;SDS011;37438;55.674;13.074;2022-09-09T12:02:25;3.63;;;3.33;;
20232;SDS011;37438;55.674;13.074;2022-09-09T12:05:39;4.05;;;3.45;;
20232;SDS011;37438;55.674;13.074;2022-09-09T12:08:48;5.97;;;3.58;;
20232;SDS011;37438;55.674;13.074;2022-09-09T12:15:18;3.92;;;3.50;;
20232;SDS011;37438;55.674;13.074;2022-09-09T12:18:36;3.58;;;3.28;;
20232;SDS011;37438;55.674;13.074;2022-09-09T12:21:49;7.13;;;3.60;;
20232;SDS011;37438;55.674;13.074;2022-09-09T12:25:23;3.88;;;3.25;;
20232;SDS011;37438;55.674;13.074;2022-09-09T12:28:42;6.43;;;3.92;;
20232;SDS011;37438;55.674;13.074;2022-09-09T12:32:07;5.07;;;4.55;;
20232;SDS011;37438;55.674;13.074;2022-09-09T12:35:22;4.20;;;3.80;;
20232;SDS011;37438;55.674;13.074;2022-09-09T12:41:37;4.47;;;2.42;;
20232;SDS011;37438;55.674;13.074;2022-09-09T12:44:50;6.32;;;3.58;;
20232;SDS011;37438;55.674;13.074;2022-09-09T12:47:56;3.03;;;2.55;;
20232;SDS011;37438;55.674;13.074;2022-09-09T12:51:05;3.03;;;2.25;;
20232;SDS011;37438;55.674;13.074;2022-09-09T12:54:20;2.33;;;2.13;;
20232;SDS011;37438;55.674;13.074;2022-09-09T12:57:28;2.00;;;1.80;;
20232;SDS011;37438;55.674;13.074;2022-09-09T13:00:38;3.63;;;2.00;;
20232;SDS011;37438;55.674;13.074;2022-09-09T13:03:55;1.85;;;1.75;;
20232;SDS011;37438;55.674;13.074;2022-09-09T13:07:09;3.35;;;2.05;;
20232;SDS011;37438;55.674;13.074;2022-09-09T13:10:14;1.73;;;1.63;;
20232;SDS011;37438;55.674;13.074;2022-09-09T13:13:50;1.70;;;1.50;;
20232;SDS011;37438;55.674;13.074;2022-09-09T13:16:57;1.65;;;1.20;;
20232;SDS011;37438;55.674;13.074;2022-09-09T13:20:04;2.42;;;2.00;;
20232;SDS011;37438;55.674;13.074;2022-09-09T13:23:10;2.13;;;1.90;;
20232;SDS011;37438;55.674;13.074;2022-09-09T13:26:20;2.50;;;1.95;;
20232;SDS011;37438;55.674;13.074;2022-09-09T13:29:27;3.15;;;1.98;;
20232;SDS011;37438;55.674;13.074;2022-09-09T13:32:33;4.13;;;2.42;;
20232;SDS011;37438;55.674;13.074;2022-09-09T13:35:51;4.40;;;2.08;;
20232;SDS011;37438;55.674;13.074;2022-09-09T13:38:59;3.10;;;2.28;;
20232;SDS011;37438;55.674;13.074;2022-09-09T13:42:05;3.13;;;2.33;;
20232;SDS011;37438;55.674;13.074;2022-09-09T13:45:17;3.08;;;2.28;;
20232;SDS011;37438;55.674;13.074;2022-09-09T13:48:27;1.77;;;1.58;;
20232;SDS011;37438;55.674;13.074;2022-09-09T13:54:41;3.53;;;1.48;;
20232;SDS011;37438;55.674;13.074;2022-09-09T13:57:52;2.35;;;1.98;;
20232;SDS011;37438;55.674;13.074;2022-09-09T14:00:59;4.80;;;1.52;;
20232;SDS011;37438;55.674;13.074;2022-09-09T14:04:04;1.52;;;1.40;;
20232;SDS011;37438;55.674;13.074;2022-09-09T14:07:11;3.13;;;1.40;;
20232;SDS011;37438;55.674;13.074;2022-09-09T14:10:17;1.48;;;1.17;;
20232;SDS011;37438;55.674;13.074;2022-09-09T14:13:22;5.05;;;1.40;;
20232;SDS011;37438;55.674;13.074;2022-09-09T14:16:26;3.33;;;0.90;;
20232;SDS011;37438;55.674;13.074;2022-09-09T14:19:31;0.90;;;0.90;;
20232;SDS011;37438;55.674;13.074;2022-09-09T14:22:36;2.20;;;1.50;;
20232;SDS011;37438;55.674;13.074;2022-09-09T14:25:41;4.10;;;1.80;;
20232;SDS011;37438;55.674;13.074;2022-09-09T14:28:46;1.38;;;1.10;;
20232;SDS011;37438;55.674;13.074;2022-09-09T14:31:58;6.03;;;1.27;;
20232;SDS011;37438;55.674;13.074;2022-09-09T14:35:04;2.33;;;1.38;;
20232;SDS011;37438;55.674;13.074;2022-09-09T14:38:09;2.42;;;1.25;;
20232;SDS011;37438;55.674;13.074;2022-09-09T14:41:18;3.60;;;1.27;;
20232;SDS011;37438;55.674;13.074;2022-09-09T14:44:26;1.85;;;1.33;;
20232;SDS011;37438;55.674;13.074;2022-09-09T14:47:30;2.90;;;1.20;;
20232;SDS011;37438;55.674;13.074;2022-09-09T14:50:34;1.95;;;1.17;;
20232;SDS011;37438;55.674;13.074;2022-09-09T14:53:43;1.73;;;1.27;;
20232;SDS011;37438;55.674;13.074;2022-09-09T14:56:48;3.20;;;1.00;;
20232;SDS011;37438;55.674;13.074;2022-09-09T14:59:52;3.88;;;2.00;;
20232;SDS011;37438;55.674;13.074;2022-09-09T15:02:57;1.33;;;0.95;;
20232;SDS011;37438;55.674;13.074;2022-09-09T15:06:09;4.13;;;0.82;;
20232;SDS011;37438;55.674;13.074;2022-09-09T15:09:15;1.35;;;1.20;;
20232;SDS011;37438;55.674;13.074;2022-09-09T15:12:19;1.85;;;1.20;;
20232;SDS011;37438;55.674;13.074;2022-09-09T15:15:24;2.65;;;1.13;;
20232;SDS011;37438;55.674;13.074;2022-09-09T15:18:30;2.30;;;0.90;;
20232;SDS011;37438;55.674;13.074;2022-09-09T15:21:36;2.75;;;1.70;;
20232;SDS011;37438;55.674;13.074;2022-09-09T15:24:41;5.43;;;1.08;;
20232;SDS011;37438;55.674;13.074;2022-09-09T15:27:45;3.25;;;0.85;;
20232;SDS011;37438;55.674;13.074;2022-09-09T15:30:51;1.42;;;1.00;;
20232;SDS011;37438;55.674;13.074;2022-09-09T15:33:57;3.65;;;0.80;;
20232;SDS011;37438;55.674;13.074;2022-09-09T15:37:06;3.88;;;1.27;;
20232;SDS011;37438;55.674;13.074;2022-09-09T15:40:14;1.85;;;1.10;;
20232;SDS011;37438;55.674;13.074;2022-09-09T15:43:18;3.22;;;1.33;;
20232;SDS011;37438;55.674;13.074;2022-09-09T15:46:24;2.45;;;1.73;;
20232;SDS011;37438;55.674;13.074;2022-09-09T15:49:32;2.60;;;1.38;;
20232;SDS011;37438;55.674;13.074;2022-09-09T15:52:37;1.60;;;1.30;;
20232;SDS011;37438;55.674;13.074;2022-09-09T15:55:41;2.50;;;1.63;;
20232;SDS011;37438;55.674;13.074;2022-09-09T15:58:46;1.52;;;1.48;;
20232;SDS011;37438;55.674;13.074;2022-09-09T16:01:51;2.88;;;1.50;;
20232;SDS011;37438;55.674;13.074;2022-09-09T16:04:56;2.85;;;1.75;;
20232;SDS011;37438;55.674;13.074;2022-09-09T16:08:01;2.25;;;1.50;;
20232;SDS011;37438;55.674;13.074;2022-09-09T16:11:07;1.95;;;1.77;;
20232;SDS011;37438;55.674;13.074;2022-09-09T16:14:15;2.20;;;1.85;;
20232;SDS011;37438;55.674;13.074;2022-09-09T16:17:19;2.42;;;1.85;;
20232;SDS011;37438;55.674;13.074;2022-09-09T16:20:24;2.83;;;1.90;;
20232;SDS011;37438;55.674;13.074;2022-09-09T16:23:29;4.15;;;2.15;;
20232;SDS011;37438;55.674;13.074;2022-09-09T16:26:34;3.05;;;1.98;;
20232;SDS011;37438;55.674;13.074;2022-09-09T16:29:39;3.42;;;1.90;;
20232;SDS011;37438;55.674;13.074;2022-09-09T16:32:44;3.50;;;2.35;;
20232;SDS011;37438;55.674;13.074;2022-09-09T16:35:48;2.97;;;2.00;;
20232;SDS011;37438;55.674;13.074;2022-09-09T16:38:57;4.70;;;1.80;;
20232;SDS011;37438;55.674;13.074;2022-09-09T16:42:03;2.50;;;2.30;;
20232;SDS011;37438;55.674;13.074;2022-09-09T16:45:08;3.33;;;2.38;;
20232;SDS011;37438;55.674;13.074;2022-09-09T16:48:12;13.35;;;2.92;;
20232;SDS011;37438;55.674;13.074;2022-09-09T16:51:21;3.53;;;1.90;;
20232;SDS011;37438;55.674;13.074;2022-09-09T16:54:28;4.53;;;2.25;;
20232;SDS011;37438;55.674;13.074;2022-09-09T16:57:32;2.63;;;2.42;;
20232;SDS011;37438;55.674;13.074;2022-09-09T17:00:37;3.03;;;2.83;;
20232;SDS011;37438;55.674;13.074;2022-09-09T17:06:46;2.47;;;2.22;;
20232;SDS011;37438;55.674;13.074;2022-09-09T17:09:53;7.95;;;3.40;;
20232;SDS011;37438;55.674;13.074;2022-09-09T17:12:57;3.58;;;2.50;;
20232;SDS011;37438;55.674;13.074;2022-09-09T17:16:03;3.35;;;3.05;;
20232;SDS011;37438;55.674;13.074;2022-09-09T17:19:09;4.68;;;2.67;;
20232;SDS011;37438;55.674;13.074;2022-09-09T17:22:14;5.03;;;2.50;;
20232;SDS011;37438;55.674;13.074;2022-09-09T17:25:21;4.60;;;2.20;;
20232;SDS011;37438;55.674;13.074;2022-09-09T17:28:26;3.25;;;2.53;;
20232;SDS011;37438;55.674;13.074;2022-09-09T17:31:35;2.88;;;2.38;;
20232;SDS011;37438;55.674;13.074;2022-09-09T17:37:43;3.15;;;2.90;;
20232;SDS011;37438;55.674;13.074;2022-09-09T17:40:48;5.80;;;2.83;;
20232;SDS011;37438;55.674;13.074;2022-09-09T17:46:58;3.83;;;3.40;;
20232;SDS011;37438;55.674;13.074;2022-09-09T17:50:03;3.53;;;3.22;;
20232;SDS011;37438;55.674;13.074;2022-09-09T17:53:08;3.55;;;3.05;;
20232;SDS011;37438;55.674;13.074;2022-09-09T17:56:13;5.72;;;4.45;;
20232;SDS011;37438;55.674;13.074;2022-09-09T17:59:19;9.88;;;5.00;;
20232;SDS011;37438;55.674;13.074;2022-09-09T18:05:28;6.47;;;5.20;;
20232;SDS011;37438;55.674;13.074;2022-09-09T18:08:34;4.85;;;4.38;;
20232;SDS011;37438;55.674;13.074;2022-09-09T18:11:41;6.60;;;5.15;;
20232;SDS011;37438;55.674;13.074;2022-09-09T18:14:48;9.05;;;5.53;;
20232;SDS011;37438;55.674;13.074;2022-09-09T18:17:53;6.85;;;5.05;;
20232;SDS011;37438;55.674;13.074;2022-09-09T18:24:03;8.02;;;5.10;;
20232;SDS011;37438;55.674;13.074;2022-09-09T18:27:08;7.05;;;4.80;;
20232;SDS011;37438;55.674;13.074;2022-09-09T18:33:17;6.28;;;5.32;;
20232;SDS011;37438;55.674;13.074;2022-09-09T18:39:27;7.47;;;4.68;;
20232;SDS011;37438;55.674;13.074;2022-09-09T18:42:32;6.60;;;5.25;;
20232;SDS011;37438;55.674;13.074;2022-09-09T18:45:37;9.38;;;5.70;;
20232;SDS011;37438;55.674;13.074;2022-09-09T18:51:48;7.53;;;5.65;;
20232;SDS011;37438;55.674;13.074;2022-09-09T18:57:57;6.38;;;5.57;;
20232;SDS011;37438;55.674;13.074;2022-09-09T19:01:02;8.10;;;5.15;;
20232;SDS011;37438;55.674;13.074;2022-09-09T19:04:09;9.05;;;6.15;;
20232;SDS011;37438;55.674;13.074;2022-09-09T19:07:14;7.78;;;5.63;;
20232;SDS011;37438;55.674;13.074;2022-09-09T19:10:19;7.38;;;5.20;;
20232;SDS011;37438;55.674;13.074;2022-09-09T19:13:24;8.70;;;6.13;;
20232;SDS011;37438;55.674;13.074;2022-09-09T19:16:29;5.82;;;5.22;;
20232;SDS011;37438;55.674;13.074;2022-09-09T19:19:35;8.75;;;6.10;;
20232;SDS011;37438;55.674;13.074;2022-09-09T19:22:40;8.60;;;5.75;;
20232;SDS011;37438;55.674;13.074;2022-09-09T19:25:44;7.72;;;5.90;;
20232;SDS011;37438;55.674;13.074;2022-09-09T19:28:48;9.45;;;6.38;;
20232;SDS011;37438;55.674;13.074;2022-09-09T19:31:55;8.35;;;6.93;;
20232;SDS011;37438;55.674;13.074;2022-09-09T19:35:22;6.63;;;6.03;;
20232;SDS011;37438;55.674;13.074;2022-09-09T19:38:27;7.65;;;6.85;;
20232;SDS011;37438;55.674;13.074;2022-09-09T19:41:32;11.65;;;7.45;;
20232;SDS011;37438;55.674;13.074;2022-09-09T19:44:37;10.30;;;6.18;;
20232;SDS011;37438;55.674;13.074;2022-09-09T19:47:42;7.50;;;6.20;;
20232;SDS011;37438;55.674;13.074;2022-09-09T19:50:46;7.57;;;6.07;;
20232;SDS011;37438;55.674;13.074;2022-09-09T19:53:51;8.07;;;6.75;;
20232;SDS011;37438;55.674;13.074;2022-09-09T19:56:58;8.35;;;6.60;;
20232;SDS011;37438;55.674;13.074;2022-09-09T20:00:04;6.75;;;6.15;;
20232;SDS011;37438;55.674;13.074;2022-09-09T20:03:14;7.00;;;6.40;;
20232;SDS011;37438;55.674;13.074;2022-09-09T20:06:23;7.78;;;6.20;;
20232;SDS011;37438;55.674;13.074;2022-09-09T20:09:29;6.85;;;5.72;;
20232;SDS011;37438;55.674;13.074;2022-09-09T20:15:38;8.13;;;5.80;;
20232;SDS011;37438;55.674;13.074;2022-09-09T20:18:43;7.25;;;6.38;;
20232;SDS011;37438;55.674;13.074;2022-09-09T20:21:49;6.97;;;6.28;;
20232;SDS011;37438;55.674;13.074;2022-09-09T20:24:55;6.53;;;5.88;;
20232;SDS011;37438;55.674;13.074;2022-09-09T20:27:59;8.23;;;6.25;;
20232;SDS011;37438;55.674;13.074;2022-09-09T20:31:04;7.82;;;6.57;;
20232;SDS011;37438;55.674;13.074;2022-09-09T20:34:13;7.38;;;6.68;;
20232;SDS011;37438;55.674;13.074;2022-09-09T20:37:19;8.10;;;7.32;;
20232;SDS011;37438;55.674;13.074;2022-09-09T20:40:23;8.15;;;7.35;;
20232;SDS011;37438;55.674;13.074;2022-09-09T20:43:28;10.85;;;7.45;;
20232;SDS011;37438;55.674;13.074;2022-09-09T20:46:33;8.88;;;8.05;;
20232;SDS011;37438;55.674;13.074;2022-09-09T20:49:39;7.82;;;6.95;;
20232;SDS011;37438;55.674;13.074;2022-09-09T20:52:43;10.05;;;7.90;;
20232;SDS011;37438;55.674;13.074;2022-09-09T20:55:48;9.90;;;8.27;;
20232;SDS011;37438;55.674;13.074;2022-09-09T20:58:53;9.40;;;8.48;;
20232;SDS011;37438;55.674;13.074;2022-09-09T21:01:58;9.98;;;8.93;;
20232;SDS011;37438;55.674;13.074;2022-09-09T21:05:04;9.68;;;8.77;;
20232;SDS011;37438;55.674;13.074;2022-09-09T21:08:09;11.85;;;8.60;;